Time;durP1;ratioP1;P1;durP2;ratioP2;P2;SDS_P1;SDS_P2;PMS_P1;PMS_P2;Temp;Humidity;BMP_temperature;BMP_pressure;BME280_temperature;BME280_humidity;BME280_pressure;Samples;Min_cycle;Max_cycle;Signal;HPM_P1;HPM_P2
2023/04/14 00:00:07;;;;;;;10.48;3.45;;;11.50;94.90;;;;;;6201631;23;20047;-81
2023/04/14 00:02:41;;;;;;;6.15;2.25;;;11.60;94.90;;;;;;6205220;23;20628;-81
2023/04/14 00:05:09;;;;;;;6.18;2.72;;;11.60;94.00;;;;;;6178918;23;20031;-81
2023/04/14 00:07:36;;;;;;;5.38;2.88;;;11.60;94.30;;;;;;6210860;23;20028;-81
2023/04/14 00:10:03;;;;;;;5.72;2.53;;;11.60;94.00;;;;;;6207909;22;20027;-80
2023/04/14 00:12:30;;;;;;;7.47;3.65;;;11.60;93.90;;;;;;6234648;22;20035;-80
2023/04/14 00:14:58;;;;;;;6.72;3.20;;;11.60;94.00;;;;;;6234479;22;20507;-80
2023/04/14 00:17:25;;;;;;;5.53;2.90;;;11.60;94.10;;;;;;6208042;22;20415;-80
2023/04/14 00:19:52;;;;;;;5.60;2.58;;;11.60;94.10;;;;;;6208622;22;20486;-79
2023/04/14 00:22:20;;;;;;;5.55;2.55;;;11.60;94.10;;;;;;6207690;22;20028;-81
2023/04/14 00:24:49;;;;;;;6.10;3.10;;;11.60;94.10;;;;;;6207711;22;20055;-80
2023/04/14 00:27:16;;;;;;;7.82;3.00;;;11.50;94.30;;;;;;6210564;22;20055;-81
2023/04/14 00:29:44;;;;;;;6.60;2.53;;;11.60;93.80;;;;;;6210275;22;20027;-80
2023/04/14 00:32:11;;;;;;;4.47;2.20;;;11.60;93.90;;;;;;6207809;22;20073;-81
2023/04/14 00:34:38;;;;;;;4.32;2.92;;;11.60;93.90;;;;;;6212953;22;20023;-79
2023/04/14 00:37:05;;;;;;;6.38;2.70;;;11.60;93.50;;;;;;6212676;22;20451;-80
2023/04/14 00:39:32;;;;;;;5.57;2.17;;;11.60;93.70;;;;;;6212387;22;20714;-80
2023/04/14 00:42:03;;;;;;;6.18;2.63;;;11.60;93.60;;;;;;6213743;22;20051;-81
2023/04/14 00:44:30;;;;;;;5.35;3.22;;;11.60;93.40;;;;;;6219251;22;20072;-79
2023/04/14 00:46:59;;;;;;;4.70;2.35;;;11.60;93.70;;;;;;6220272;22;20285;-80
2023/04/14 00:49:27;;;;;;;4.82;2.53;;;11.60;93.20;;;;;;6211085;22;20457;-81
2023/04/14 00:51:55;;;;;;;6.03;2.58;;;11.10;93.10;;;;;;6216053;22;20019;-81
2023/04/14 00:54:24;;;;;;;4.78;2.40;;;11.60;93.40;;;;;;6218036;22;20016;-81
2023/04/14 00:56:53;;;;;;;8.82;2.63;;;11.60;93.00;;;;;;6220568;22;20023;-81
2023/04/14 00:59:21;;;;;;;5.68;2.47;;;11.60;93.00;;;;;;6221226;22;20020;-81
2023/04/14 01:01:48;;;;;;;5.78;2.35;;;11.60;92.60;;;;;;6223374;22;20027;-81
2023/04/14 01:04:19;;;;;;;5.13;2.60;;;11.60;92.50;;;;;;6223933;22;20024;-81
2023/04/14 01:06:46;;;;;;;4.22;2.58;;;11.50;92.80;;;;;;6248264;22;20439;-79
2023/04/14 01:09:15;;;;;;;6.55;2.80;;;11.50;92.90;;;;;;6222218;22;20024;-80
2023/04/14 01:11:49;;;;;;;4.53;2.80;;;11.50;92.70;;;;;;6221876;22;20051;-80
2023/04/14 01:14:16;;;;;;;5.50;2.40;;;11.50;92.70;;;;;;6224655;22;20027;-81
2023/04/14 01:16:44;;;;;;;5.72;2.70;;;11.50;93.00;;;;;;6223572;22;20020;-80
2023/04/14 01:19:17;;;;;;;4.43;2.65;;;11.50;93.30;;;;;;6223650;22;20036;-81
2023/04/14 01:21:48;;;;;;;5.07;2.72;;;11.50;93.40;;;;;;6248239;22;20032;-80
2023/04/14 01:24:15;;;;;;;8.48;3.88;;;11.50;93.60;;;;;;6221800;22;20795;-80
2023/04/14 01:26:44;;;;;;;8.85;4.45;;;11.40;93.60;;;;;;6223324;22;20023;-80
2023/04/14 01:29:48;;;;;;;6.15;3.47;;;11.40;93.60;;;;;;6223543;22;20370;-81
2023/04/14 01:32:21;;;;;;;4.82;3.10;;;11.40;93.80;;;;;;6222322;22;20024;-80
2023/04/14 01:34:56;;;;;;;6.28;3.72;;;11.40;94.10;;;;;;6222793;22;20019;-80
2023/04/14 01:37:29;;;;;;;6.75;3.15;;;11.30;93.80;;;;;;6249254;22;20087;-80
2023/04/14 01:40:02;;;;;;;5.85;2.95;;;11.30;93.70;;;;;;6223363;22;20178;-81
2023/04/14 01:42:35;;;;;;;11.35;4.85;;;11.30;93.70;;;;;;6248064;22;20073;-80
2023/04/14 01:45:25;;;;;;;11.05;4.55;;;11.30;93.60;;;;;;6223679;22;20019;-80
2023/04/14 01:47:54;;;;;;;7.05;3.53;;;11.30;93.80;;;;;;6250141;22;20031;-81
2023/04/14 01:50:26;;;;;;;5.25;2.88;;;11.30;93.60;;;;;;6225196;22;20023;-80
2023/04/14 01:52:53;;;;;;;6.25;2.72;;;11.30;93.40;;;;;;6200105;22;20026;-81
2023/04/14 01:55:25;;;;;;;6.55;3.15;;;11.30;93.50;;;;;;6224461;22;20478;-80
2023/04/14 01:57:55;;;;;;;5.57;2.75;;;11.30;93.40;;;;;;6224518;22;20026;-80
2023/04/14 02:00:24;;;;;;;5.32;3.00;;;11.30;93.10;;;;;;6249167;22;20016;-81
2023/04/14 02:02:53;;;;;;;4.35;2.35;;;11.30;93.10;;;;;;6225611;22;20394;-80
2023/04/14 02:05:22;;;;;;;6.25;3.10;;;11.30;93.20;;;;;;6225741;22;20412;-81
2023/04/14 02:07:52;;;;;;;5.80;2.75;;;11.30;93.30;;;;;;6250105;22;20023;-80
2023/04/14 02:10:20;;;;;;;5.00;2.50;;;11.30;93.20;;;;;;6223896;22;20027;-80
2023/04/14 02:12:51;;;;;;;6.30;2.95;;;11.30;93.00;;;;;;6224814;22;20115;-80
2023/04/14 02:15:21;;;;;;;6.03;2.70;;;11.30;93.00;;;;;;6224991;22;20024;-80
2023/04/14 02:17:51;;;;;;;5.00;2.67;;;11.30;93.00;;;;;;6250607;22;20016;-81
2023/04/14 02:20:22;;;;;;;5.38;2.38;;;11.30;93.00;;;;;;6224911;22;20023;-80
2023/04/14 02:22:50;;;;;;;5.22;2.10;;;11.30;92.80;;;;;;6225589;22;20019;-81
2023/04/14 02:25:17;;;;;;;5.88;2.67;;;11.30;92.60;;;;;;6224448;22;20027;-81
2023/04/14 02:27:53;;;;;;;4.57;1.95;;;11.30;92.60;;;;;;6225363;22;20035;-81
2023/04/14 02:30:41;;;;;;;4.10;2.25;;;11.40;92.00;;;;;;6249171;22;20023;-80
2023/04/14 02:33:16;;;;;;;2.78;1.42;;;11.40;91.80;;;;;;6250650;22;20024;-80
2023/04/14 02:36:01;;;;;;;6.80;2.65;;;11.50;91.30;;;;;;6224934;22;20042;-80
2023/04/14 02:38:37;;;;;;;5.45;1.98;;;11.50;91.20;;;;;;6224510;22;20082;-79
2023/04/14 02:41:27;;;;;;;4.90;2.40;;;11.50;91.30;;;;;;6223625;22;20023;-80
2023/04/14 02:44:10;;;;;;;4.97;2.10;;;11.50;91.10;;;;;;6225187;22;20054;-80
2023/04/14 02:46:41;;;;;;;4.72;2.83;;;11.50;91.30;;;;;;6224272;22;20023;-80
2023/04/14 02:49:11;;;;;;;5.85;2.67;;;11.50;90.90;;;;;;6224977;22;20031;-80
2023/04/14 02:51:40;;;;;;;3.55;2.28;;;11.50;90.90;;;;;;6224527;22;20020;-79
2023/04/14 02:54:09;;;;;;;7.03;3.13;;;11.50;90.90;;;;;;6249875;22;20825;-81
2023/04/14 02:56:39;;;;;;;7.38;3.13;;;11.50;91.10;;;;;;6225120;22;20018;-79
2023/04/14 02:59:07;;;;;;;4.78;1.95;;;11.50;91.10;;;;;;6225172;22;20106;-80
2023/04/14 03:01:40;;;;;;;;;;;11.50;91.20;;;;;;6225708;22;20066;-80
2023/04/14 03:04:08;;;;;;;5.18;2.42;;;11.50;91.20;;;;;;6223266;22;19923;-81
2023/04/14 03:06:38;;;;;;;5.10;2.67;;;11.50;91.60;;;;;;6224395;22;20024;-81
2023/04/14 03:09:06;;;;;;;5.60;3.08;;;11.40;91.50;;;;;;6249066;22;20454;-79
2023/04/14 03:11:35;;;;;;;4.57;2.63;;;11.50;91.50;;;;;;6223212;22;20031;-81
2023/04/14 03:14:04;;;;;;;5.85;2.20;;;11.50;91.50;;;;;;6224205;22;20785;-79
2023/04/14 03:16:33;;;;;;;4.15;2.40;;;11.50;91.70;;;;;;6248420;22;20020;-80
2023/04/14 03:19:03;;;;;;;4.88;2.28;;;11.40;91.70;;;;;;6226303;22;20053;-80
2023/04/14 03:21:34;;;;;;;5.25;1.98;;;11.50;92.00;;;;;;6224863;22;20050;-81
2023/04/14 03:24:04;;;;;;;5.82;2.67;;;11.40;91.90;;;;;;6223760;22;20028;-81
2023/04/14 03:26:33;;;;;;;4.63;2.47;;;11.40;92.00;;;;;;6224745;22;20027;-79
2023/04/14 03:29:02;;;;;;;6.90;2.97;;;11.40;92.10;;;;;;6224352;22;20077;-80
2023/04/14 03:31:32;;;;;;;4.43;2.15;;;11.40;92.40;;;;;;6226936;22;20020;-79
2023/04/14 03:34:03;;;;;;;6.57;2.65;;;11.40;92.90;;;;;;6223289;22;20019;-80
2023/04/14 03:36:36;;;;;;;4.32;2.80;;;11.40;93.30;;;;;;6224094;22;20019;-80
2023/04/14 03:39:05;;;;;;;3.83;2.40;;;11.40;93.40;;;;;;6223077;22;20062;-79
2023/04/14 03:41:38;;;;;;;5.05;2.78;;;11.30;93.70;;;;;;6223518;22;20015;-80
2023/04/14 03:44:14;;;;;;;6.10;3.72;;;11.30;93.70;;;;;;6246353;22;20028;-78
2023/04/14 03:46:44;;;;;;;6.00;2.90;;;11.30;94.20;;;;;;6247442;22;20059;-81
2023/04/14 03:49:15;;;;;;;5.72;3.00;;;11.30;94.50;;;;;;6221798;22;20028;-81
2023/04/14 03:51:48;;;;;;;6.47;3.58;;;11.20;95.00;;;;;;6247689;22;20020;-80
2023/04/14 03:54:18;;;;;;;5.38;2.78;;;11.20;95.10;;;;;;6223391;22;20026;-81
2023/04/14 03:56:47;;;;;;;5.50;3.20;;;11.20;95.10;;;;;;6223450;22;20016;-79
2023/04/14 03:59:16;;;;;;;5.75;2.88;;;11.20;95.30;;;;;;6223296;22;20023;-81
2023/04/14 04:01:45;;;;;;;5.95;2.13;;;11.20;95.20;;;;;;6221139;22;20016;-80
2023/04/14 04:04:13;;;;;;;5.95;2.85;;;11.20;95.00;;;;;;6199902;22;20049;-80
2023/04/14 04:06:42;;;;;;;8.77;3.95;;;11.20;95.00;;;;;;6225396;22;20031;-80
2023/04/14 04:09:13;;;;;;;5.25;2.88;;;11.10;95.40;;;;;;6224110;22;20030;-81
2023/04/14 04:11:44;;;;;;;7.85;3.88;;;11.10;95.30;;;;;;6223520;22;20027;-80
2023/04/14 04:14:13;;;;;;;6.65;3.03;;;11.10;95.70;;;;;;6223006;22;20406;-79
2023/04/14 04:16:42;;;;;;;6.75;3.45;;;11.10;95.60;;;;;;6222797;22;20016;-80
2023/04/14 04:19:13;;;;;;;7.10;3.60;;;11.10;95.60;;;;;;6246638;22;20089;-80
2023/04/14 04:21:44;;;;;;;5.43;3.38;;;11.10;95.50;;;;;;6246886;22;20015;-80
2023/04/14 04:24:14;;;;;;;5.00;3.05;;;11.10;95.60;;;;;;6221576;22;20031;-80
2023/04/14 04:26:42;;;;;;;8.02;2.95;;;11.10;95.60;;;;;;6245339;22;20054;-80
2023/04/14 04:29:09;;;;;;;5.07;2.97;;;11.10;95.80;;;;;;6221746;22;20110;-80
2023/04/14 04:31:39;;;;;;;7.93;3.55;;;11.10;95.80;;;;;;6222096;22;20514;-80
2023/04/14 04:34:07;;;;;;;6.78;3.92;;;11.10;95.60;;;;;;6223216;22;20081;-81
2023/04/14 04:36:37;;;;;;;8.35;4.35;;;11.10;95.70;;;;;;6223878;22;20015;-80
2023/04/14 04:39:04;;;;;;;9.43;4.15;;;11.10;95.80;;;;;;6221849;22;20031;-80
2023/04/14 04:41:36;;;;;;;7.50;3.78;;;11.10;96.00;;;;;;6224238;22;20126;-81
2023/04/14 04:44:03;;;;;;;7.43;3.17;;;11.10;95.80;;;;;;6222487;22;20761;-81
2023/04/14 04:46:53;;;;;;;5.50;2.80;;;11.10;95.80;;;;;;6221571;22;20078;-80
2023/04/14 04:49:24;;;;;;;6.82;3.25;;;11.10;95.90;;;;;;6224036;22;20075;-81
2023/04/14 04:51:53;;;;;;;8.57;3.40;;;11.10;95.80;;;;;;6248993;22;20030;-81
2023/04/14 04:54:20;;;;;;;7.00;3.28;;;11.10;95.90;;;;;;6221696;22;20074;-80
2023/04/14 04:56:47;;;;;;;7.35;3.45;;;11.10;95.80;;;;;;6221159;22;20047;-80
2023/04/14 04:59:14;;;;;;;6.75;2.90;;;11.20;95.40;;;;;;6221599;22;20019;-80
2023/04/14 05:01:41;;;;;;;5.75;2.88;;;11.20;95.70;;;;;;6246556;22;20019;-81
2023/04/14 05:04:09;;;;;;;8.05;3.25;;;11.20;95.50;;;;;;6221875;22;20110;-80
2023/04/14 05:06:36;;;;;;;6.13;3.20;;;11.20;95.70;;;;;;6220621;22;20030;-81
2023/04/14 05:09:03;;;;;;;5.25;2.83;;;11.20;95.40;;;;;;6221730;22;20081;-81
2023/04/14 05:11:32;;;;;;;7.05;3.33;;;11.20;95.40;;;;;;6222053;22;20027;-81
2023/04/14 05:13:59;;;;;;;6.28;3.60;;;11.20;95.60;;;;;;6220799;22;20020;-81
2023/04/14 05:16:27;;;;;;;6.47;3.03;;;11.20;95.40;;;;;;6247058;22;20028;-80
2023/04/14 05:18:54;;;;;;;7.50;3.50;;;11.20;95.40;;;;;;6222649;22;20106;-80
2023/04/14 05:21:22;;;;;;;7.25;4.07;;;11.20;95.40;;;;;;6203810;23;20024;-80
2023/04/14 05:23:49;;;;;;;7.38;3.90;;;11.20;95.60;;;;;;6241137;23;20043;-80
2023/04/14 05:26:17;;;;;;;6.60;2.72;;;11.30;95.30;;;;;;6246441;22;20024;-80
2023/04/14 05:28:47;;;;;;;6.63;3.58;;;11.20;95.60;;;;;;6221464;22;20456;-80
2023/04/14 05:31:14;;;;;;;6.18;2.67;;;11.30;95.60;;;;;;6247338;22;20024;-80
2023/04/14 05:33:41;;;;;;;6.43;3.00;;;11.30;95.60;;;;;;6245253;22;20103;-80
2023/04/14 05:36:08;;;;;;;7.57;3.33;;;11.30;95.80;;;;;;6247877;22;20030;-81
2023/04/14 05:38:38;;;;;;;7.22;3.00;;;11.30;95.90;;;;;;6247122;22;20026;-81
2023/04/14 05:41:06;;;;;;;7.05;3.47;;;11.30;96.00;;;;;;6222049;22;20065;-80
2023/04/14 05:43:34;;;;;;;6.30;3.45;;;11.30;96.20;;;;;;6245024;22;20074;-80
2023/04/14 05:46:01;;;;;;;6.30;3.13;;;11.30;96.40;;;;;;6221685;22;20024;-79
2023/04/14 05:48:29;;;;;;;7.25;3.95;;;11.40;96.10;;;;;;6245927;22;20023;-80
2023/04/14 05:50:57;;;;;;;7.97;2.90;;;11.40;96.40;;;;;;6270995;22;20713;-80
2023/04/14 05:53:24;;;;;;;8.85;3.47;;;11.40;96.20;;;;;;6221011;22;20027;-81
2023/04/14 05:55:52;;;;;;;4.63;2.65;;;11.40;96.00;;;;;;6219255;22;20395;-81
2023/04/14 05:58:19;;;;;;;7.28;3.70;;;11.50;96.30;;;;;;6206404;22;20196;-80
2023/04/14 06:00:46;;;;;;;7.57;3.88;;;11.40;95.90;;;;;;6205096;22;20015;-79
2023/04/14 06:03:14;;;;;;;5.70;2.53;;;11.50;96.20;;;;;;6207777;22;20019;-80
2023/04/14 06:05:42;;;;;;;6.55;3.63;;;11.50;96.10;;;;;;6207792;22;20479;-79
2023/04/14 06:08:09;;;;;;;6.45;3.50;;;11.50;95.90;;;;;;6233504;22;20042;-81
2023/04/14 06:10:37;;;;;;;7.68;3.03;;;11.50;95.70;;;;;;6236549;22;20049;-80
2023/04/14 06:13:04;;;;;;;7.03;2.90;;;11.50;96.00;;;;;;6206113;22;20319;-80
2023/04/14 06:15:31;;;;;;;4.78;2.90;;;11.60;96.10;;;;;;6206418;22;20016;-80
2023/04/14 06:17:58;;;;;;;5.45;2.88;;;11.50;95.90;;;;;;6211674;22;20043;-80
2023/04/14 06:20:25;;;;;;;5.72;3.20;;;11.60;96.00;;;;;;6206703;22;20370;-80
2023/04/14 06:22:53;;;;;;;11.13;3.60;;;11.60;96.00;;;;;;6208621;22;20020;-80
2023/04/14 06:25:20;;;;;;;6.28;2.90;;;11.70;95.90;;;;;;6232331;22;20020;-81
2023/04/14 06:27:47;;;;;;;5.90;3.25;;;11.70;95.80;;;;;;6232318;22;20020;-80
2023/04/14 06:30:15;;;;;;;5.80;2.97;;;11.70;96.00;;;;;;6209727;22;20029;-81
2023/04/14 06:32:43;;;;;;;7.97;3.40;;;11.80;95.90;;;;;;6208538;22;20379;-81
2023/04/14 06:35:10;;;;;;;7.72;3.97;;;11.80;96.10;;;;;;6210414;22;20034;-80
2023/04/14 06:37:51;;;;;;;6.68;3.40;;;11.80;95.80;;;;;;6211928;22;20024;-81
2023/04/14 06:40:18;;;;;;;6.45;2.70;;;11.90;96.10;;;;;;6208983;22;20020;-81
2023/04/14 06:42:45;;;;;;;6.22;3.80;;;11.90;96.20;;;;;;6208848;22;20024;-80
2023/04/14 06:45:12;;;;;;;8.50;2.97;;;11.90;95.70;;;;;;6214324;22;20027;-80
2023/04/14 06:47:40;;;;;;;5.18;2.70;;;11.90;96.00;;;;;;6209845;22;20031;-79
2023/04/14 06:50:07;;;;;;;10.30;3.60;;;11.90;96.10;;;;;;6214487;22;20020;-80
2023/04/14 06:52:34;;;;;;;6.32;3.33;;;12.00;96.00;;;;;;6208902;22;20464;-80
2023/04/14 06:55:02;;;;;;;9.93;3.75;;;12.00;95.80;;;;;;6202101;23;20024;-80
2023/04/14 06:57:29;;;;;;;5.28;2.25;;;12.00;96.10;;;;;;6226260;23;20024;-80
2023/04/14 06:59:56;;;;;;;7.40;3.67;;;12.00;96.10;;;;;;6223689;23;20027;-81
2023/04/14 07:02:23;;;;;;;6.30;3.00;;;12.00;96.00;;;;;;6225513;23;20456;-80
2023/04/14 07:04:50;;;;;;;6.40;3.85;;;12.10;95.80;;;;;;6225863;23;20028;-80
2023/04/14 07:07:18;;;;;;;6.68;3.35;;;12.20;95.60;;;;;;6225545;23;20450;-80
2023/04/14 07:09:45;;;;;;;8.02;3.50;;;12.20;95.40;;;;;;6224346;23;20031;-79
2023/04/14 07:12:13;;;;;;;7.93;3.63;;;12.20;95.10;;;;;;6225511;23;20500;-79
2023/04/14 07:14:41;;;;;;;9.25;3.90;;;12.20;94.90;;;;;;6223375;23;20027;-80
2023/04/14 07:17:08;;;;;;;7.75;3.00;;;12.20;94.60;;;;;;6225743;23;20279;-80
2023/04/14 07:19:35;;;;;;;6.80;3.47;;;12.20;94.60;;;;;;6224480;23;20020;-80
2023/04/14 07:22:02;;;;;;;7.70;2.70;;;12.30;95.10;;;;;;6198479;23;20108;-80
2023/04/14 07:24:30;;;;;;;5.57;2.65;;;12.30;95.00;;;;;;6224685;23;20027;-80
2023/04/14 07:26:57;;;;;;;5.95;3.13;;;12.30;94.90;;;;;;6230243;22;20359;-80
2023/04/14 07:29:26;;;;;;;5.18;2.30;;;12.30;95.60;;;;;;6259336;22;20023;-79
2023/04/14 07:31:53;;;;;;;5.50;2.78;;;12.30;96.10;;;;;;6203527;22;20468;-80
2023/04/14 07:34:20;;;;;;;5.50;2.70;;;12.30;96.40;;;;;;6203795;22;20048;-80
2023/04/14 07:36:48;;;;;;;7.80;3.72;;;12.40;96.40;;;;;;6229624;22;20019;-80
2023/04/14 07:39:15;;;;;;;7.20;3.20;;;12.40;97.00;;;;;;6204311;22;20024;-80
2023/04/14 07:41:43;;;;;;;8.07;4.25;;;12.50;96.70;;;;;;6210234;22;20019;-79
2023/04/14 07:44:10;;;;;;;8.32;4.10;;;12.60;96.80;;;;;;6205646;22;20034;-78
2023/04/14 07:46:37;;;;;;;10.30;5.30;;;12.60;95.80;;;;;;6228274;22;20025;-79
2023/04/14 07:49:04;;;;;;;6.95;4.10;;;12.60;96.00;;;;;;6206770;22;20028;-80
2023/04/14 07:51:31;;;;;;;7.25;3.88;;;12.70;96.40;;;;;;6232257;22;20612;-80
2023/04/14 07:53:58;;;;;;;5.25;3.30;;;12.80;95.60;;;;;;6204165;22;20085;-80
2023/04/14 07:56:26;;;;;;;6.43;3.50;;;12.90;95.60;;;;;;6206279;22;20023;-80
2023/04/14 07:58:53;;;;;;;6.90;3.28;;;13.00;96.00;;;;;;6209292;22;20023;-80
2023/04/14 08:01:20;;;;;;;6.25;3.38;;;13.00;95.40;;;;;;6206943;22;20019;-81
2023/04/14 08:03:47;;;;;;;7.07;3.20;;;13.00;94.90;;;;;;6239346;22;20050;-80
2023/04/14 08:06:15;;;;;;;5.95;3.50;;;12.90;94.80;;;;;;6216167;22;20063;-80
2023/04/14 08:08:42;;;;;;;5.72;2.55;;;13.00;94.80;;;;;;6232768;22;20023;-79
2023/04/14 08:11:09;;;;;;;10.50;3.92;;;13.00;94.70;;;;;;6236204;22;20019;-80
2023/04/14 08:13:36;;;;;;;9.43;5.07;;;13.00;94.80;;;;;;6205230;22;20030;-80
2023/04/14 08:16:04;;;;;;;8.68;4.20;;;13.00;95.00;;;;;;6205983;22;20785;-80
2023/04/14 08:18:31;;;;;;;7.43;2.85;;;13.00;94.90;;;;;;6222209;22;20073;-80
2023/04/14 08:20:59;;;;;;;6.28;2.80;;;13.00;95.10;;;;;;6221500;22;20012;-79
2023/04/14 08:23:26;;;;;;;6.43;2.85;;;12.90;94.80;;;;;;6222016;22;20049;-79
2023/04/14 08:25:53;;;;;;;6.47;3.22;;;12.90;95.50;;;;;;6247367;22;20716;-79
2023/04/14 08:28:20;;;;;;;4.43;2.22;;;12.80;94.90;;;;;;6221871;22;20023;-80
2023/04/14 08:30:48;;;;;;;5.25;2.28;;;12.70;95.10;;;;;;6234190;22;20030;-80
2023/04/14 08:33:15;;;;;;;5.65;2.45;;;12.70;95.30;;;;;;6201629;23;20438;-80
2023/04/14 08:35:42;;;;;;;5.07;2.47;;;12.70;95.00;;;;;;6209724;23;20027;-80
2023/04/14 08:38:10;;;;;;;5.50;3.35;;;12.70;95.20;;;;;;6204014;23;20434;-80
2023/04/14 08:40:42;;;;;;;5.75;3.35;;;12.60;95.90;;;;;;6174078;23;20484;-80
2023/04/14 08:43:10;;;;;;;6.43;2.95;;;12.60;97.40;;;;;;6212360;23;20106;-80
2023/04/14 08:45:42;;;;;;;6.38;3.50;;;12.60;98.10;;;;;;6212030;23;20028;-80
2023/04/14 08:48:11;;;;;;;8.57;5.40;;;12.50;99.50;;;;;;6198588;23;20554;-80
2023/04/14 08:51:03;;;;;;;8.15;5.40;;;12.50;99.90;;;;;;6205895;23;20027;-80
2023/04/14 08:53:32;;;;;;;8.07;4.47;;;12.50;99.90;;;;;;6215589;23;20024;-81
2023/04/14 08:56:02;;;;;;;8.45;3.70;;;12.50;99.90;;;;;;6201678;23;20240;-81
2023/04/14 08:58:30;;;;;;;7.95;3.53;;;12.50;99.90;;;;;;6205326;23;20012;-80
2023/04/14 09:00:59;;;;;;;5.60;3.13;;;12.50;99.90;;;;;;6190354;23;20359;-80
2023/04/14 09:03:26;;;;;;;7.82;3.75;;;12.50;99.90;;;;;;6219977;22;20032;-80
2023/04/14 09:05:54;;;;;;;9.10;4.03;;;12.50;99.90;;;;;;6221579;22;20034;-81
2023/04/14 09:08:21;;;;;;;9.07;4.07;;;12.50;99.90;;;;;;6207549;22;20089;-81
2023/04/14 09:10:49;;;;;;;9.40;5.63;;;12.50;99.90;;;;;;6237337;22;20020;-81
2023/04/14 09:13:20;;;;;;;6.85;4.15;;;12.50;99.90;;;;;;6213398;22;20073;-81
2023/04/14 09:15:48;;;;;;;6.20;3.63;;;12.50;99.90;;;;;;6220492;22;20023;-80
2023/04/14 09:18:16;;;;;;;7.70;3.88;;;12.40;99.90;;;;;;6239411;22;20100;-81
2023/04/14 09:20:48;;;;;;;7.25;4.05;;;12.40;99.90;;;;;;6215126;22;20016;-81
2023/04/14 09:23:36;;;;;;;11.50;4.53;;;12.30;99.90;;;;;;6225499;22;20099;-81
2023/04/14 09:26:08;;;;;;;7.53;3.83;;;12.30;99.90;;;;;;6226464;22;20244;-81
2023/04/14 09:28:36;;;;;;;8.77;4.32;;;12.20;99.90;;;;;;6226372;22;20066;-81
2023/04/14 09:31:05;;;;;;;8.38;4.35;;;12.20;99.90;;;;;;6237608;22;20079;-82
2023/04/14 09:33:42;;;;;;;17.42;4.72;;;12.10;99.90;;;;;;6220375;22;20024;-81
2023/04/14 09:36:30;;;;;;;9.77;5.30;;;12.10;99.90;;;;;;6213542;22;20020;-81
2023/04/14 09:38:57;;;;;;;8.60;4.28;;;12.20;99.90;;;;;;6175047;22;20110;-81
2023/04/14 09:41:27;;;;;;;8.82;4.35;;;12.20;99.90;;;;;;6211823;22;20043;-81
2023/04/14 09:43:54;;;;;;;10.60;4.40;;;12.20;99.90;;;;;;6206028;22;20523;-81
2023/04/14 09:46:21;;;;;;;7.90;4.05;;;12.20;99.90;;;;;;6211721;22;20439;-80
2023/04/14 09:48:55;;;;;;;9.07;4.75;;;12.20;99.90;;;;;;6212538;22;20183;-81
2023/04/14 09:51:32;;;;;;;9.25;4.00;;;12.10;99.90;;;;;;6220529;22;20019;-81
2023/04/14 09:54:03;;;;;;;8.32;3.95;;;12.10;99.90;;;;;;6226027;22;20020;-80
2023/04/14 09:56:31;;;;;;;8.15;4.65;;;12.10;99.90;;;;;;6224916;22;20020;-81
2023/04/14 09:59:00;;;;;;;13.35;6.75;;;12.00;99.90;;;;;;6224866;22;20020;-81
2023/04/14 10:01:30;;;;;;;12.23;6.25;;;12.00;99.90;;;;;;6224447;22;20019;-81
2023/04/14 10:04:00;;;;;;;12.07;6.60;;;12.00;99.90;;;;;;6211153;22;20028;-81
2023/04/14 10:06:27;;;;;;;12.25;5.40;;;12.00;99.90;;;;;;6241184;22;20027;-81
2023/04/14 10:08:55;;;;;;;9.88;5.15;;;12.00;99.90;;;;;;6229581;22;20019;-81
2023/04/14 10:11:24;;;;;;;8.90;4.47;;;12.00;99.90;;;;;;6228178;22;20030;-81
2023/04/14 10:13:56;;;;;;;10.38;5.00;;;11.90;99.90;;;;;;6251141;22;20028;-81
2023/04/14 10:16:24;;;;;;;9.82;5.03;;;11.90;99.90;;;;;;6220305;22;20024;-81
2023/04/14 10:18:53;;;;;;;7.18;4.20;;;11.90;99.90;;;;;;6243988;22;20346;-80
2023/04/14 10:21:21;;;;;;;10.43;5.13;;;11.90;99.90;;;;;;6213722;22;20015;-81
2023/04/14 10:23:49;;;;;;;11.18;5.57;;;11.90;99.90;;;;;;6209380;22;20090;-80
2023/04/14 10:26:18;;;;;;;11.85;5.40;;;11.90;99.90;;;;;;6211303;22;20023;-81
2023/04/14 10:28:48;;;;;;;11.95;6.03;;;11.90;99.90;;;;;;6226518;22;20085;-80
2023/04/14 10:31:21;;;;;;;9.25;5.00;;;11.90;99.90;;;;;;6241360;22;20414;-81
2023/04/14 10:33:49;;;;;;;10.25;4.82;;;11.90;99.90;;;;;;6219211;22;20462;-81
2023/04/14 10:36:27;;;;;;;10.45;5.20;;;11.90;99.90;;;;;;6228692;22;20019;-81
2023/04/14 10:39:00;;;;;;;9.13;4.78;;;11.90;99.90;;;;;;6251060;22;20015;-80
2023/04/14 10:41:46;;;;;;;10.45;5.30;;;11.90;99.90;;;;;;6217774;22;20502;-80
2023/04/14 10:44:30;;;;;;;9.00;4.30;;;12.00;99.90;;;;;;6210707;22;20066;-80
2023/04/14 10:47:00;;;;;;;10.07;4.82;;;12.00;99.90;;;;;;6225794;22;20028;-80
2023/04/14 10:49:31;;;;;;;11.52;4.80;;;12.00;99.90;;;;;;6226005;22;20031;-81
2023/04/14 10:52:03;;;;;;;10.82;5.38;;;12.00;99.90;;;;;;6225123;22;20026;-81
2023/04/14 10:54:54;;;;;;;9.48;5.13;;;12.10;99.90;;;;;;6224238;22;20081;-81
2023/04/14 10:57:23;;;;;;;8.80;4.40;;;12.00;99.90;;;;;;6243765;23;20020;-80
2023/04/14 10:59:55;;;;;;;9.13;4.65;;;12.10;99.90;;;;;;6243134;23;20510;-80
2023/04/14 11:02:33;;;;;;;11.07;4.57;;;12.10;99.90;;;;;;6212295;22;20054;-80
2023/04/14 11:05:10;;;;;;;9.23;4.97;;;12.10;99.90;;;;;;6217473;22;20051;-80
2023/04/14 11:07:44;;;;;;;12.48;5.55;;;12.10;99.90;;;;;;6209718;22;20054;-80
2023/04/14 11:10:20;;;;;;;12.23;5.43;;;12.10;99.90;;;;;;6243160;22;20016;-80
2023/04/14 11:13:02;;;;;;;8.82;4.68;;;12.20;99.90;;;;;;6248088;22;20106;-80
2023/04/14 11:15:46;;;;;;;12.85;4.97;;;12.20;99.90;;;;;;6232513;22;20333;-81
2023/04/14 11:18:28;;;;;;;10.48;4.20;;;12.20;99.90;;;;;;6233934;22;20754;-80
2023/04/14 11:21:12;;;;;;;8.00;3.88;;;12.10;99.90;;;;;;6248322;22;20031;-80
2023/04/14 11:23:40;;;;;;;10.18;4.97;;;12.10;99.90;;;;;;6235153;22;20123;-80
2023/04/14 11:26:08;;;;;;;9.80;4.75;;;12.10;99.90;;;;;;6232325;22;20028;-80
2023/04/14 11:28:38;;;;;;;10.48;4.53;;;12.00;99.90;;;;;;6235662;22;20027;-79
2023/04/14 11:31:07;;;;;;;8.82;3.45;;;12.00;99.90;;;;;;6233007;22;20100;-80
2023/04/14 11:33:40;;;;;;;3.88;2.15;;;12.00;99.90;;;;;;6242207;22;20480;-80
2023/04/14 11:36:09;;;;;;;8.68;4.40;;;12.00;99.90;;;;;;6249017;22;20020;-79
2023/04/14 11:38:40;;;;;;;7.55;3.05;;;12.00;99.90;;;;;;6248566;22;20431;-80
2023/04/14 11:41:08;;;;;;;5.03;1.73;;;12.00;99.90;;;;;;6224108;22;20019;-78
2023/04/14 11:43:45;;;;;;;8.20;3.20;;;12.00;99.90;;;;;;6247712;22;20020;-78
2023/04/14 11:46:13;;;;;;;4.97;2.80;;;12.00;99.90;;;;;;6247578;22;20023;-78
2023/04/14 11:48:40;;;;;;;7.00;3.22;;;12.00;99.90;;;;;;6247972;22;20016;-80
2023/04/14 11:51:07;;;;;;;6.88;3.00;;;12.00;99.90;;;;;;6247601;22;20020;-78
2023/04/14 11:53:35;;;;;;;8.90;4.13;;;12.00;99.90;;;;;;6221963;22;20024;-79
2023/04/14 11:56:05;;;;;;;6.60;2.58;;;11.90;99.90;;;;;;6247428;22;20110;-78
2023/04/14 11:58:32;;;;;;;8.82;3.70;;;11.80;99.90;;;;;;6247693;22;20019;-79
2023/04/14 12:01:00;;;;;;;7.90;3.63;;;11.80;99.90;;;;;;6224018;22;20073;-78
2023/04/14 12:03:29;;;;;;;10.13;4.57;;;11.50;99.90;;;;;;6248997;22;20015;-80
2023/04/14 12:06:02;;;;;;;9.05;5.05;;;11.30;99.90;;;;;;6248047;22;20081;-80
2023/04/14 12:08:30;;;;;;;7.93;4.63;;;11.30;99.90;;;;;;6222624;22;20031;-80
2023/04/14 12:10:58;;;;;;;8.25;5.05;;;11.20;99.90;;;;;;6272381;22;20098;-80
2023/04/14 12:13:25;;;;;;;9.05;5.45;;;11.20;99.90;;;;;;6246670;22;20063;-81
2023/04/14 12:15:53;;;;;;;10.45;6.07;;;11.20;99.90;;;;;;6247330;22;20054;-80
2023/04/14 12:18:21;;;;;;;12.95;7.35;;;11.10;99.90;;;;;;6224679;22;20019;-80
2023/04/14 12:20:54;;;;;;;9.85;5.70;;;11.20;99.90;;;;;;6235206;22;20553;-79
2023/04/14 12:23:22;;;;;;;;;;;11.20;99.90;;;;;;6234767;22;20028;-81
2023/04/14 12:25:50;;;;;;;16.63;8.80;;;11.20;99.90;;;;;;6216056;22;19919;-80
2023/04/14 12:28:28;;;;;;;18.63;9.63;;;11.00;99.90;;;;;;6208958;22;20588;-79
2023/04/14 12:31:06;;;;;;;19.35;11.25;;;11.00;99.90;;;;;;6243758;22;20027;-80
2023/04/14 12:33:33;;;;;;;36.22;20.95;;;11.00;99.90;;;;;;6213240;22;20023;-79
2023/04/14 12:36:06;;;;;;;22.42;13.43;;;11.00;99.90;;;;;;6208363;22;20351;-79
2023/04/14 12:38:34;;;;;;;11.52;6.22;;;11.10;99.90;;;;;;6243601;22;20449;-79
2023/04/14 12:41:01;;;;;;;11.23;7.00;;;11.00;99.90;;;;;;6208978;22;20031;-78
2023/04/14 12:43:34;;;;;;;6.32;3.90;;;11.00;99.90;;;;;;6216670;22;20764;-81
2023/04/14 12:46:06;;;;;;;6.47;4.00;;;11.00;99.90;;;;;;6250118;22;20074;-80
2023/04/14 12:48:45;;;;;;;7.57;5.30;;;11.10;99.90;;;;;;6247437;22;20711;-79
2023/04/14 12:51:17;;;;;;;8.57;5.43;;;11.10;99.90;;;;;;6245714;22;20047;-80
2023/04/14 12:53:48;;;;;;;7.73;3.63;;;11.20;99.90;;;;;;6250117;22;20024;-78
2023/04/14 12:56:18;;;;;;;7.10;3.53;;;11.10;99.90;;;;;;6250283;22;20257;-81
2023/04/14 12:58:47;;;;;;;5.88;3.63;;;11.00;99.90;;;;;;6250383;22;20775;-80